Weather at Henbury Airport

Public forecast

Using degrees Celsius for public forecast. Weather courtesy of forecast.io.

Closest aviation weather report (METAR) to Henbury Airport

Closest report is Alice Springs Airport, 59.2 nm (109.7 km) NE. Retrieved 2021/08/03 20:30 UTC (1 minute ago):

YBAS 032030Z AUTO 29004KT 9999 // NCD 01/M03 Q1027 RF000/0000

Closest aviation forecast (TAF) to Henbury Airport

Closest forecast is Alice Springs Airport, 59.2 nm (109.7 km) NE. Retrieved 2021/08/03 18:00 UTC (3 hours ago):

TAF YBAS 031713Z 0318/0418 30005KT CAVOK FM040000 13014KT CAVOK FM041000 14008KT CAVOK FM041400 30005KT CAVOK